Time;durP1;ratioP1;P1;durP2;ratioP2;P2;SDS_P1;SDS_P2;PMS_P1;PMS_P2;Temp;Humidity;BMP_temperature;BMP_pressure;BME280_temperature;BME280_humidity;BME280_pressure;Samples;Min_cycle;Max_cycle;Signal;HPM_P1;HPM_P2
2021/12/19 00:09:10;;;;;;;13.90;6.67;;;;;;;4.43;79.61;99306.05;1738827;81;25611;-62
2021/12/19 00:11:38;;;;;;;14.10;6.47;;;;;;;4.47;79.53;99305.28;1737946;82;25425;-63
2021/12/19 00:14:05;;;;;;;14.58;6.50;;;;;;;4.50;79.51;99292.55;1737959;81;25762;-62
2021/12/19 00:16:32;;;;;;;14.10;6.80;;;;;;;4.51;79.47;99298.78;1737705;82;25416;-63
2021/12/19 00:18:59;;;;;;;7.72;3.83;;;;;;;4.50;79.35;99299.87;1737599;81;27492;-62
2021/12/19 00:21:26;;;;;;;11.80;6.05;;;;;;;4.47;79.23;99295.78;1737755;82;25622;-63
2021/12/19 00:23:55;;;;;;;11.15;5.95;;;;;;;4.45;79.35;99290.31;1737555;82;25653;-63
2021/12/19 00:26:21;;;;;;;9.98;5.08;;;;;;;4.41;79.27;99283.77;1738036;81;25670;-66
2021/12/19 00:28:50;;;;;;;11.95;5.97;;;;;;;4.39;79.33;99288.09;1737137;82;25417;-66
2021/12/19 00:31:17;;;;;;;11.80;6.12;;;;;;;4.41;79.24;99285.95;1737789;81;27385;-68
2021/12/19 00:33:44;;;;;;;11.45;5.85;;;;;;;4.44;79.15;99277.83;1737381;82;25454;-66
2021/12/19 00:36:12;;;;;;;11.97;6.28;;;;;;;4.48;79.09;99278.41;1738126;82;25528;-68
2021/12/19 00:38:39;;;;;;;11.55;6.10;;;;;;;4.52;79.02;99281.44;1737947;82;25738;-64
2021/12/19 00:41:06;;;;;;;18.65;8.90;;;;;;;4.55;78.95;99284.17;1737391;82;25591;-65
2021/12/19 00:46:06;;;;;;;27.55;13.05;;;;;;;4.54;78.86;99268.94;1737792;81;25672;-67
2021/12/19 00:48:30;;;;;;;29.65;14.65;;;;;;;4.46;79.05;99265.62;1737221;82;25488;-66
2021/12/19 00:50:57;;;;;;;33.13;15.60;;;;;;;4.39;79.32;99256.89;1737592;82;25725;-68
2021/12/19 00:53:23;;;;;;;33.78;17.40;;;;;;;4.33;79.61;99272.31;1737696;82;25587;-67
2021/12/19 00:55:50;;;;;;;33.25;18.50;;;;;;;4.26;79.87;99264.37;1737850;82;27486;-66
2021/12/19 00:58:18;;;;;;;36.33;17.80;;;;;;;4.20;80.08;99261.32;1737451;82;25468;-67
2021/12/19 01:00:44;;;;;;;31.12;17.05;;;;;;;4.18;80.34;99262.13;1737498;82;25416;-66
2021/12/19 01:03:11;;;;;;;31.73;16.65;;;;;;;4.18;80.38;99258.59;1737574;82;25836;-66
2021/12/19 01:05:41;;;;;;;29.48;13.95;;;;;;;4.16;80.52;99252.59;1737498;82;25613;-62
2021/12/19 01:08:11;;;;;;;30.65;15.00;;;;;;;4.12;80.67;99246.32;1767714;80;27512;-62
2021/12/19 01:10:39;;;;;;;30.50;14.95;;;;;;;4.13;80.61;99247.98;1779465;80;25735;-62
2021/12/19 01:13:06;;;;;;;31.20;15.80;;;;;;;4.13;80.78;99241.73;1779699;80;25510;-63
2021/12/19 01:15:32;;;;;;;28.23;13.98;;;;;;;4.12;80.85;99244.17;1779351;80;25708;-64
2021/12/19 01:18:00;;;;;;;31.97;15.13;;;;;;;4.10;81.06;99235.45;1721868;82;25458;-65
2021/12/19 01:20:29;;;;;;;24.80;14.38;;;;;;;4.05;81.47;99232.69;1779935;80;27407;-64
2021/12/19 01:22:57;;;;;;;27.98;14.85;;;;;;;4.01;81.50;99217.48;1779366;80;25843;-62
2021/12/19 01:25:24;;;;;;;32.58;15.95;;;;;;;3.97;81.65;99212.30;1719727;82;25431;-66
2021/12/19 01:27:51;;;;;;;27.48;13.90;;;;;;;3.93;81.66;99205.72;1778753;80;25775;-63
2021/12/19 01:30:17;;;;;;;29.50;14.93;;;;;;;3.89;81.78;99197.30;1720041;82;25655;-63
2021/12/19 01:32:45;;;;;;;29.77;15.78;;;;;;;3.86;82.07;99202.67;1719948;81;27426;-67
2021/12/19 01:35:15;;;;;;;33.02;17.10;;;;;;;3.85;82.17;99197.51;1778407;80;25667;-63
2021/12/19 01:37:42;;;;;;;30.62;15.75;;;;;;;3.86;82.15;99187.77;1777548;80;25733;-62
2021/12/19 01:40:12;;;;;;;19.23;10.38;;;;;;;3.85;82.29;99186.66;1779464;80;25715;-62
2021/12/19 01:42:42;;;;;;;26.00;12.97;;;;;;;3.85;82.45;99179.36;1779250;80;25424;-67
2021/12/19 01:45:14;;;;;;;28.07;14.38;;;;;;;3.86;82.38;99172.05;1779145;80;28218;-67
2021/12/19 01:47:41;;;;;;;26.40;14.25;;;;;;;3.85;82.32;99172.58;1722702;82;27241;-64
2021/12/19 01:50:10;;;;;;;26.00;13.55;;;;;;;3.88;82.33;99165.81;1778149;80;25675;-66
2021/12/19 01:52:36;;;;;;;25.55;13.15;;;;;;;3.87;82.46;99151.98;1778269;80;25816;-67
2021/12/19 01:55:04;;;;;;;19.17;9.65;;;;;;;3.89;82.48;99145.22;1720380;82;25421;-66
2021/12/19 01:57:30;;;;;;;18.65;9.45;;;;;;;3.84;82.95;99138.41;1717989;82;27337;-67
2021/12/19 01:59:57;;;;;;;19.00;9.85;;;;;;;3.81;83.00;99141.64;1778105;80;25655;-66
2021/12/19 02:02:24;;;;;;;21.05;10.95;;;;;;;3.77;83.10;99135.07;1779036;80;25448;-68
2021/12/19 02:04:50;;;;;;;23.10;11.08;;;;;;;3.75;83.05;99137.23;1719758;81;25866;-65
2021/12/19 02:07:17;;;;;;;26.57;13.15;;;;;;;3.73;83.12;99141.56;1779380;80;25673;-66
2021/12/19 02:09:44;;;;;;;20.20;10.65;;;;;;;3.73;83.00;99133.43;1778940;80;27456;-66
2021/12/19 02:12:12;;;;;;;21.80;13.13;;;;;;;3.75;83.14;99133.17;1778862;80;25593;-66
2021/12/19 02:14:39;;;;;;;22.30;13.98;;;;;;;3.78;83.14;99138.61;1779992;80;25749;-67
2021/12/19 02:17:06;;;;;;;22.55;13.80;;;;;;;3.79;83.04;99144.30;1779443;80;25776;-67
2021/12/19 02:19:33;;;;;;;18.37;11.05;;;;;;;3.81;83.02;99125.37;1779354;80;25457;-66
2021/12/19 02:22:00;;;;;;;17.40;10.65;;;;;;;3.82;82.86;99110.73;1779611;80;27564;-66
2021/12/19 02:24:27;;;;;;;20.10;10.88;;;;;;;3.87;83.01;99114.03;1719229;82;25409;-66
2021/12/19 02:26:53;;;;;;;21.25;10.90;;;;;;;3.90;82.87;99113.52;1778648;80;25400;-65
2021/12/19 02:29:20;;;;;;;20.85;11.22;;;;;;;3.93;82.78;99105.39;1779555;80;25835;-62
2021/12/19 02:31:46;;;;;;;17.62;9.70;;;;;;;3.95;82.75;99096.47;1779336;80;25661;-65
2021/12/19 02:34:18;;;;;;;17.85;9.40;;;;;;;3.94;82.75;99091.58;1779364;80;27553;-63
2021/12/19 02:49:51;;;;;;;10.68;6.62;;;;;;;3.84;82.64;99050.30;1679367;82;25646;-62
2021/12/19 02:52:20;;;;;;;16.57;9.53;;;;;;;3.86;82.59;99061.69;1779313;80;25698;-62
2021/12/19 02:54:47;;;;;;;24.70;12.40;;;;;;;3.90;82.41;99060.64;1779273;79;25706;-62
2021/12/19 02:57:13;;;;;;;16.37;7.95;;;;;;;3.93;82.37;99051.98;1779020;80;25379;-65
2021/12/19 02:59:40;;;;;;;18.15;10.23;;;;;;;3.94;82.24;99053.61;1779611;80;27620;-66
2021/12/19 03:02:07;;;;;;;18.95;9.93;;;;;;;3.96;82.17;99047.93;1778567;80;25613;-66
2021/12/19 03:04:34;;;;;;;13.25;6.03;;;;;;;4.00;82.16;99035.50;1779117;80;25408;-63
2021/12/19 03:07:00;;;;;;;14.78;8.55;;;;;;;3.99;82.17;99036.03;1779529;80;25888;-65
2021/12/19 03:09:57;;;;;;;17.98;9.58;;;;;;;3.96;82.22;99025.70;1754994;80;25461;-65
2021/12/19 03:12:24;;;;;;;17.77;9.93;;;;;;;3.95;82.25;99020.55;1755858;81;25891;-62
2021/12/19 03:20:13;;;;;;;15.93;7.85;;;;;;;3.89;82.52;99005.58;1754406;81;25577;-66
2021/12/19 03:22:40;;;;;;;14.70;8.33;;;;;;;3.89;82.47;98994.73;1755080;81;25657;-66
2021/12/19 03:25:08;;;;;;;10.38;5.87;;;;;;;3.92;82.47;98989.34;1755037;81;27534;-66
2021/12/19 03:27:35;;;;;;;10.10;5.97;;;;;;;3.94;82.55;98985.81;1755572;81;25575;-66
2021/12/19 03:30:03;;;;;;;15.32;8.40;;;;;;;3.92;82.46;98976.32;1755240;81;25451;-66
2021/12/19 03:32:30;;;;;;;12.75;6.42;;;;;;;3.94;82.40;98964.69;1755218;81;25741;-65
2021/12/19 03:34:56;;;;;;;16.90;8.65;;;;;;;3.95;82.44;98956.81;1755354;81;25621;-65
2021/12/19 03:37:22;;;;;;;19.20;10.38;;;;;;;3.91;82.53;98942.95;1755199;81;27576;-65
2021/12/19 03:40:07;;;;;;;19.45;11.03;;;;;;;3.92;82.48;98935.65;1709994;82;25461;-67
2021/12/19 03:42:26;;;;;;;18.55;10.32;;;;;;;3.91;82.60;98923.98;1752403;81;25659;-66
2021/12/19 03:44:53;;;;;;;21.33;11.55;;;;;;;3.93;82.57;98918.29;1755576;81;25768;-66
2021/12/19 03:47:20;;;;;;;17.05;9.20;;;;;;;3.92;82.53;98913.42;1755231;81;25444;-65
2021/12/19 03:49:46;;;;;;;14.38;7.83;;;;;;;3.92;82.47;98906.65;1755057;81;27420;-64
2021/12/19 03:52:14;;;;;;;16.82;8.65;;;;;;;3.88;82.54;98915.84;1755511;81;25412;-62
2021/12/19 03:54:40;;;;;;;24.27;11.00;;;;;;;3.87;82.56;98910.67;1755605;81;25772;-62
2021/12/19 03:57:06;;;;;;;21.95;10.63;;;;;;;3.83;82.60;98909.02;1755059;81;25793;-63
2021/12/19 03:59:33;;;;;;;23.77;10.53;;;;;;;3.84;82.55;98912.03;1755282;81;25389;-65
2021/12/19 04:01:59;;;;;;;13.70;7.95;;;;;;;3.86;82.57;98907.14;1755548;81;27436;-66
2021/12/19 04:04:25;;;;;;;20.60;10.28;;;;;;;3.87;82.46;98893.05;1755472;81;25640;-66
2021/12/19 04:06:52;;;;;;;20.55;11.00;;;;;;;3.91;82.35;98890.64;1755292;81;25748;-63
2021/12/19 04:09:18;;;;;;;16.82;9.38;;;;;;;3.91;82.40;98877.88;1714764;82;25776;-63
2021/12/19 04:11:44;;;;;;;16.27;8.25;;;;;;;3.93;82.27;98877.09;1716795;82;25483;-63
2021/12/19 04:14:11;;;;;;;18.17;9.23;;;;;;;3.92;82.18;98867.86;1779915;80;27409;-62
2021/12/19 04:16:42;;;;;;;20.72;10.38;;;;;;;3.90;82.13;98854.57;1778625;80;25715;-62
2021/12/19 04:19:05;;;;;;;17.80;9.13;;;;;;;3.89;82.21;98857.02;1777780;80;25427;-65
2021/12/19 04:21:31;;;;;;;20.30;8.88;;;;;;;3.90;82.23;98859.99;1780330;80;26365;-62
2021/12/19 04:23:58;;;;;;;17.60;8.80;;;;;;;3.87;82.27;98852.38;1780027;80;25553;-62
2021/12/19 04:26:24;;;;;;;16.10;8.78;;;;;;;3.85;82.17;98847.75;1779582;80;27525;-66
2021/12/19 04:28:51;;;;;;;15.90;7.72;;;;;;;3.85;82.13;98838.27;1778400;80;25641;-63
2021/12/19 04:31:17;;;;;;;19.67;10.05;;;;;;;3.86;82.04;98847.49;1780025;80;25568;-65
2021/12/19 04:33:43;;;;;;;22.10;10.03;;;;;;;3.89;81.98;98842.90;1780068;80;25691;-66
2021/12/19 04:36:15;;;;;;;16.25;8.58;;;;;;;3.93;81.76;98848.62;1779348;80;25643;-65
2021/12/19 04:51:01;;;;;;;9.35;5.60;;;;;;;3.94;81.25;98827.75;1779935;80;25685;-67
2021/12/19 04:52:26;;;;;;;13.38;7.03;;;;;;;3.92;81.30;98828.55;1779197;80;26775;-67
2021/12/19 05:02:16;;;;;;;15.43;9.40;;;;;;;3.94;80.75;98821.77;1780024;80;25600;-64
2021/12/19 05:15:33;;;;;;;8.03;4.85;;;;;;;3.94;80.43;98812.28;1779328;80;25661;-65
2021/12/19 05:18:04;;;;;;;9.83;5.33;;;;;;;3.91;80.34;98799.81;1779107;80;28318;-66
2021/12/19 05:20:29;;;;;;;9.03;5.45;;;;;;;3.86;80.45;98801.41;1778950;80;25645;-65
2021/12/19 05:23:05;;;;;;;11.15;6.55;;;;;;;3.86;80.34;98797.34;1779130;80;25672;-62
2021/12/19 05:25:25;;;;;;;12.70;6.97;;;;;;;3.84;80.33;98792.73;1779472;80;25657;-66
2021/12/19 05:27:55;;;;;;;9.40;5.28;;;;;;;3.86;80.36;98788.41;1779422;80;25727;-65
2021/12/19 05:30:23;;;;;;;8.48;5.08;;;;;;;3.88;80.20;98787.05;1779178;80;27382;-62
2021/12/19 05:32:53;;;;;;;8.73;5.40;;;;;;;3.91;80.00;98788.41;1779510;80;25673;-62
2021/12/19 05:35:30;;;;;;;7.65;4.83;;;;;;;3.92;80.06;98783.28;1779738;80;25648;-62
2021/12/19 05:46:05;;;;;;;9.15;5.53;;;;;;;3.91;80.03;98771.34;1779316;80;25658;-65
2021/12/19 05:48:32;;;;;;;7.80;5.50;;;;;;;3.93;80.02;98769.98;1779658;80;25765;-62
2021/12/19 05:50:58;;;;;;;8.20;5.08;;;;;;;3.97;79.91;98783.84;1779128;80;25688;-63
2021/12/19 05:53:25;;;;;;;8.48;5.30;;;;;;;4.00;79.82;98780.03;1779419;80;25486;-63
2021/12/19 05:55:51;;;;;;;8.85;4.75;;;;;;;4.05;79.76;98779.23;1779241;80;27495;-66
2021/12/19 05:58:17;;;;;;;6.58;4.10;;;;;;;4.07;79.54;98792.52;1779303;80;25473;-64
2021/12/19 06:00:43;;;;;;;7.50;4.87;;;;;;;4.07;79.60;98783.86;1779737;80;25727;-64
2021/12/19 06:03:10;;;;;;;9.05;4.60;;;;;;;4.07;79.75;98777.08;1778976;80;25773;-62
2021/12/19 06:05:36;;;;;;;8.78;4.87;;;;;;;4.06;79.66;98775.42;1779452;80;25368;-62
2021/12/19 06:08:03;;;;;;;8.18;5.15;;;;;;;4.04;79.74;98784.39;1778573;80;27481;-66
2021/12/19 06:10:30;;;;;;;9.18;4.80;;;;;;;4.04;79.67;98793.88;1757100;81;25642;-65
2021/12/19 06:12:59;;;;;;;10.85;6.47;;;;;;;4.06;79.54;98793.62;1757416;81;25671;-65
2021/12/19 06:15:26;;;;;;;11.25;6.22;;;;;;;4.09;79.67;98799.30;1757737;81;26596;-64
2021/12/19 06:17:53;;;;;;;11.85;5.80;;;;;;;4.12;79.60;98794.70;1757300;81;25565;-65
2021/12/19 06:20:21;;;;;;;11.83;7.53;;;;;;;4.13;79.51;98798.23;1757507;81;27771;-65
2021/12/19 06:22:48;;;;;;;10.38;5.85;;;;;;;4.17;79.53;98795.81;1757256;81;25584;-66
2021/12/19 06:25:15;;;;;;;9.55;5.00;;;;;;;4.15;79.56;98793.38;1757871;81;25543;-64
2021/12/19 06:27:42;;;;;;;13.70;6.15;;;;;;;4.16;79.66;98795.52;1758257;81;26950;-66
2021/12/19 06:30:11;;;;;;;9.55;5.62;;;;;;;4.17;79.67;98793.11;1757261;80;25439;-66
2021/12/19 06:32:38;;;;;;;10.43;5.50;;;;;;;4.14;79.65;98799.33;1757696;81;27392;-66
2021/12/19 06:35:11;;;;;;;10.68;5.92;;;;;;;4.14;79.69;98799.33;1757518;81;25462;-66
2021/12/19 06:37:38;;;;;;;10.75;6.12;;;;;;;4.18;79.69;98795.55;1757408;81;25653;-67
2021/12/19 06:40:11;;;;;;;11.30;6.15;;;;;;;4.21;79.68;98794.19;1758134;80;25827;-66
2021/12/19 06:42:38;;;;;;;9.98;6.95;;;;;;;4.23;79.62;98783.34;1757665;81;25412;-64
2021/12/19 06:45:05;;;;;;;12.28;6.67;;;;;;;4.29;79.48;98786.86;1757646;81;27507;-63
2021/12/19 06:47:32;;;;;;;14.15;6.22;;;;;;;4.33;79.39;98781.73;1757178;81;25655;-62
2021/12/19 06:49:58;;;;;;;13.72;6.28;;;;;;;4.34;79.36;98792.84;1757556;81;25636;-65
2021/12/19 06:52:25;;;;;;;11.28;5.58;;;;;;;4.35;79.15;98781.72;1757579;81;25646;-62
2021/12/19 06:54:51;;;;;;;12.18;5.15;;;;;;;4.34;79.19;98773.31;1757473;81;25678;-62
2021/12/19 06:57:17;;;;;;;11.85;6.42;;;;;;;4.33;79.32;98778.48;1757554;81;27618;-67
2021/12/19 06:59:43;;;;;;;11.80;6.35;;;;;;;4.33;79.45;98773.59;1757391;81;25465;-65
2021/12/19 07:02:14;;;;;;;14.83;8.65;;;;;;;4.31;79.25;98778.45;1757759;81;25591;-66
2021/12/19 07:04:38;;;;;;;11.57;6.90;;;;;;;4.34;79.25;98763.82;1757457;81;25554;-63
2021/12/19 07:07:04;;;;;;;11.90;6.62;;;;;;;4.37;79.18;98763.81;1757460;81;25665;-62
2021/12/19 07:09:30;;;;;;;9.88;5.85;;;;;;;4.39;79.16;98754.88;1757716;80;27599;-63
2021/12/19 07:11:57;;;;;;;10.32;5.55;;;;;;;4.42;79.11;98754.87;1757471;81;25590;-66
2021/12/19 07:14:23;;;;;;;10.75;6.08;;;;;;;4.44;79.04;98746.75;1757855;81;25690;-63
2021/12/19 07:16:50;;;;;;;11.95;5.55;;;;;;;4.46;79.09;98745.13;1757302;81;27887;-67
2021/12/19 07:19:16;;;;;;;10.78;6.10;;;;;;;4.45;79.15;98751.08;1757575;81;25610;-67
2021/12/19 07:21:42;;;;;;;10.10;5.83;;;;;;;4.42;79.21;98738.59;1756400;81;27483;-66
2021/12/19 07:24:09;;;;;;;11.93;6.25;;;;;;;4.41;79.30;98741.03;1757152;81;25417;-62
2021/12/19 07:26:35;;;;;;;13.00;7.50;;;;;;;4.37;79.47;98736.68;1757211;80;25578;-62
2021/12/19 07:29:01;;;;;;;42.10;21.70;;;;;;;4.35;79.47;98719.87;1757505;81;25749;-63
2021/12/19 07:31:30;;;;;;;40.25;17.92;;;;;;;4.37;79.43;98714.98;1757726;81;25673;-64
2021/12/19 07:33:57;;;;;;;29.63;13.98;;;;;;;4.40;79.42;98706.30;1756990;81;25906;-66
2021/12/19 07:36:25;;;;;;;63.90;28.67;;;;;;;4.43;79.30;98713.89;1757467;81;25421;-65
2021/12/19 07:39:07;;;;;;;72.55;29.48;;;;;;;4.46;79.22;98715.27;1708286;83;25614;-66
2021/12/19 07:41:30;;;;;;;101.22;35.90;;;;;;;4.50;79.16;98709.03;1756818;81;25703;-67
2021/12/19 07:43:57;;;;;;;151.90;56.15;;;;;;;4.51;79.16;98698.44;1757435;81;25593;-65
2021/12/19 07:46:24;;;;;;;105.03;46.70;;;;;;;4.50;79.37;98693.28;1757349;81;27501;-66
2021/12/19 07:48:50;;;;;;;47.65;27.37;;;;;;;4.48;79.49;98693.55;1757566;81;25639;-67
2021/12/19 07:51:17;;;;;;;41.18;25.17;;;;;;;4.49;79.69;98692.45;1756405;81;25708;-66
2021/12/19 07:53:43;;;;;;;29.32;17.52;;;;;;;4.48;79.91;98698.98;1709937;83;25772;-66
2021/12/19 07:56:10;;;;;;;34.15;18.50;;;;;;;4.47;80.14;98697.89;1757495;81;25606;-66
2021/12/19 07:58:36;;;;;;;23.32;15.13;;;;;;;4.51;80.13;98700.33;1757444;81;27496;-66
2021/12/19 08:01:03;;;;;;;30.08;18.40;;;;;;;4.56;80.23;98702.22;1757162;81;25589;-67
2021/12/19 08:03:29;;;;;;;24.90;15.58;;;;;;;4.59;80.29;98706.58;1757633;81;25413;-66
2021/12/19 08:05:55;;;;;;;28.98;18.67;;;;;;;4.63;80.40;98706.83;1757315;81;25788;-62
2021/12/19 08:08:26;;;;;;;28.07;16.05;;;;;;;4.66;80.52;98700.05;1757575;81;25635;-64
2021/12/19 08:13:17;;;;;;;23.57;15.23;;;;;;;4.61;81.19;98708.45;1757671;81;25591;-66
2021/12/19 08:15:43;;;;;;;24.40;15.38;;;;;;;4.61;81.53;98706.30;1709345;83;25726;-62
2021/12/19 08:18:10;;;;;;;16.90;12.05;;;;;;;4.59;81.61;98705.22;1757414;81;25756;-62
2021/12/19 08:20:37;;;;;;;25.88;16.20;;;;;;;4.60;81.93;98701.94;1709358;83;25475;-63
2021/12/19 08:23:04;;;;;;;21.02;11.15;;;;;;;4.61;82.09;98697.59;1757899;81;27710;-62
2021/12/19 08:25:31;;;;;;;16.67;9.78;;;;;;;4.65;82.44;98688.38;1757485;81;25673;-66
2021/12/19 08:27:57;;;;;;;82.40;22.07;;;;;;;4.68;82.15;98689.72;1757742;81;25740;-62
2021/12/19 08:30:25;;;;;;;18.40;9.08;;;;;;;4.71;82.78;98694.06;1757244;81;25793;-63
2021/12/19 08:32:52;;;;;;;11.35;5.37;;;;;;;4.74;83.40;98690.80;1757477;81;25387;-64
2021/12/19 08:35:19;;;;;;;15.23;7.17;;;;;;;4.75;83.32;98692.42;1757434;81;27497;-66
2021/12/19 08:37:45;;;;;;;11.90;7.42;;;;;;;4.74;83.75;98707.09;1757647;81;27131;-66
2021/12/19 08:40:12;;;;;;;12.63;8.30;;;;;;;4.74;84.06;98712.52;1757731;81;25639;-65
2021/12/19 08:42:38;;;;;;;17.20;9.98;;;;;;;4.73;84.20;98709.55;1757362;81;25793;-64
2021/12/19 08:45:06;;;;;;;18.32;8.30;;;;;;;4.72;84.10;98703.83;1757385;81;25725;-63
2021/12/19 08:47:33;;;;;;;23.60;13.85;;;;;;;4.71;83.64;98702.21;1757896;81;27438;-64
2021/12/19 08:49:59;;;;;;;28.62;14.60;;;;;;;4.72;83.84;98705.75;1708787;83;25437;-63
2021/12/19 08:52:25;;;;;;;30.55;16.67;;;;;;;4.72;83.91;98709.26;1710674;83;25620;-64
2021/12/19 08:54:51;;;;;;;30.25;17.20;;;;;;;4.72;84.03;98711.18;1711150;83;25716;-64
2021/12/19 08:57:18;;;;;;;19.52;9.48;;;;;;;4.70;84.07;98697.88;1710778;83;25708;-64
2021/12/19 08:59:44;;;;;;;22.85;13.72;;;;;;;4.71;84.23;98691.36;1710809;83;29542;-64
2021/12/19 09:02:11;;;;;;;20.45;12.28;;;;;;;4.74;84.31;98694.88;1709988;83;25601;-64
2021/12/19 09:04:38;;;;;;;16.73;10.40;;;;;;;4.76;84.29;98687.82;1710760;83;25621;-64
2021/12/19 09:07:05;;;;;;;24.45;17.45;;;;;;;4.76;84.45;98691.36;1710877;83;25707;-65
2021/12/19 09:09:31;;;;;;;9.30;5.28;;;;;;;4.75;84.76;98684.28;1714503;82;25684;-64
2021/12/19 09:11:58;;;;;;;25.72;13.88;;;;;;;4.71;85.04;98687.81;1726121;82;27535;-64
2021/12/19 09:14:24;;;;;;;45.33;20.60;;;;;;;4.71;85.17;98693.25;1726113;82;25731;-65
2021/12/19 09:16:51;;;;;;;64.05;26.10;;;;;;;4.70;85.08;98687.02;1726275;82;25404;-63
2021/12/19 09:19:18;;;;;;;61.05;22.02;;;;;;;4.72;85.21;98687.54;1726261;82;25797;-64
2021/12/19 09:21:44;;;;;;;59.25;22.82;;;;;;;4.76;85.27;98690.53;1726446;82;25578;-64
2021/12/19 09:24:11;;;;;;;33.65;13.72;;;;;;;4.76;85.01;98695.96;1726135;82;27587;-65
2021/12/19 09:26:39;;;;;;;37.25;15.68;;;;;;;4.77;85.31;98690.26;1726163;82;25416;-64
2021/12/19 09:29:07;;;;;;;47.30;17.92;;;;;;;4.83;85.09;98687.52;1725618;82;25919;-65
2021/12/19 09:31:33;;;;;;;85.87;30.27;;;;;;;4.85;85.14;98681.28;1726145;82;25745;-64
2021/12/19 09:33:59;;;;;;;63.08;22.40;;;;;;;4.87;84.83;98683.98;1726594;82;25593;-64
2021/12/19 09:36:27;;;;;;;76.17;25.95;;;;;;;4.87;84.83;98679.11;1726255;82;27445;-65
2021/12/19 09:38:54;;;;;;;110.28;38.17;;;;;;;4.85;84.95;98684.81;1726044;82;25678;-64
2021/12/19 09:41:31;;;;;;;117.55;36.73;;;;;;;4.82;85.04;98678.58;1726385;83;25561;-64
2021/12/19 09:44:05;;;;;;;96.28;32.98;;;;;;;4.82;85.09;98670.43;1726197;82;25609;-64
2021/12/19 09:46:37;;;;;;;52.00;19.60;;;;;;;4.82;85.05;98669.08;1725058;82;25745;-65
2021/12/19 09:49:07;;;;;;;167.70;45.17;;;;;;;4.82;85.00;98662.28;1725994;83;27426;-65
2021/12/19 09:51:35;;;;;;;146.60;41.92;;;;;;;4.86;85.37;98650.31;1726353;83;26096;-64
2021/12/19 09:54:02;;;;;;;156.12;46.42;;;;;;;4.88;85.33;98653.04;1726171;82;25467;-65
2021/12/19 09:56:33;;;;;;;127.75;36.85;;;;;;;4.92;85.21;98647.05;1726084;82;25784;-65
2021/12/19 09:58:57;;;;;;;168.30;44.20;;;;;;;4.93;85.04;98644.60;1725707;82;25731;-62
2021/12/19 10:01:24;;;;;;;182.30;44.48;;;;;;;4.96;84.90;98641.33;1726120;82;29426;-64
2021/12/19 10:03:51;;;;;;;220.85;58.15;;;;;;;4.99;84.92;98640.25;1726216;82;25657;-64
2021/12/19 10:06:27;;;;;;;145.53;40.60;;;;;;;4.96;84.85;98629.94;1725552;83;25395;-65
2021/12/19 10:09:18;;;;;;;104.12;30.80;;;;;;;4.97;85.05;98634.80;1726177;83;26575;-64
2021/12/19 10:12:12;;;;;;;96.57;31.35;;;;;;;4.90;85.24;98626.97;1725880;83;33063;-62
2021/12/19 10:14:35;;;;;;;196.32;56.35;;;;;;;4.88;85.24;98620.98;1724094;82;26058;-63
2021/12/19 10:17:06;;;;;;;140.47;45.83;;;;;;;4.89;85.20;98619.36;1726047;82;25716;-61
2021/12/19 10:19:52;;;;;;;55.92;22.55;;;;;;;4.94;85.41;98610.91;1724385;82;25784;-61
2021/12/19 10:22:38;;;;;;;148.05;44.83;;;;;;;4.95;85.32;98609.84;1725940;83;25791;-62
2021/12/19 10:25:24;;;;;;;77.35;26.55;;;;;;;4.94;85.32;98592.73;1726306;82;25394;-62
2021/12/19 10:27:57;;;;;;;110.48;36.42;;;;;;;4.97;85.35;98596.78;1726366;82;27468;-64
2021/12/19 10:30:46;;;;;;;276.77;76.33;;;;;;;5.01;85.13;98596.52;1726205;82;25744;-63
2021/12/19 10:33:16;;;;;;;60.88;22.75;;;;;;;5.04;85.22;98588.34;1726258;82;25679;-63
2021/12/19 10:35:56;;;;;;;69.10;24.70;;;;;;;5.03;85.16;98580.73;1726377;82;25677;-63
2021/12/19 10:38:34;;;;;;;88.50;27.45;;;;;;;5.03;85.03;98572.58;1726425;82;25455;-63
2021/12/19 10:41:17;;;;;;;104.40;31.90;;;;;;;4.98;85.09;98569.34;1724692;83;28416;-63
2021/12/19 10:44:00;;;;;;;67.85;23.92;;;;;;;5.00;85.03;98563.63;1725986;83;25566;-64
2021/12/19 10:46:32;;;;;;;158.68;49.98;;;;;;;5.05;85.06;98560.08;1726022;82;25541;-63
2021/12/19 10:49:00;;;;;;;93.07;31.87;;;;;;;5.09;85.14;98550.27;1725291;82;25744;-64
2021/12/19 10:51:32;;;;;;;63.38;21.02;;;;;;;5.13;84.94;98545.36;1726334;82;25692;-64
2021/12/19 10:54:00;;;;;;;62.98;23.87;;;;;;;5.18;84.60;98549.95;1725397;82;27099;-64
2021/12/19 10:56:34;;;;;;;128.05;43.13;;;;;;;5.21;84.45;98537.17;1719434;83;25611;-64
2021/12/19 10:59:05;;;;;;;51.40;18.95;;;;;;;5.23;84.37;98534.99;1726079;82;25569;-62
2021/12/19 11:01:39;;;;;;;42.15;16.70;;;;;;;5.19;84.45;98531.22;1721988;83;25791;-64
2021/12/19 11:04:17;;;;;;;78.75;26.27;;;;;;;5.17;85.00;98539.37;1709785;83;25619;-62
2021/12/19 11:06:47;;;;;;;56.50;20.17;;;;;;;5.18;84.67;98535.02;1700744;83;29431;-64
2021/12/19 11:09:24;;;;;;;82.65;27.75;;;;;;;5.20;84.44;98526.05;1701285;83;25635;-62
2021/12/19 11:12:07;;;;;;;34.63;13.88;;;;;;;5.21;84.51;98531.73;1732168;82;25866;-64
2021/12/19 11:14:52;;;;;;;73.90;25.72;;;;;;;5.23;84.15;98526.84;1768388;80;25662;-62
2021/12/19 11:17:26;;;;;;;31.97;12.28;;;;;;;5.27;83.96;98515.66;1767230;81;25652;-61
2021/12/19 11:19:57;;;;;;;138.80;40.30;;;;;;;5.29;83.21;98510.52;1768150;81;27589;-62
2021/12/19 11:22:28;;;;;;;;;;;;;;;5.33;83.45;98508.31;1770932;81;26446;-64
2021/12/19 11:25:01;;;;;;;20.95;8.38;;;;;;;5.35;83.34;98499.31;1768555;81;25489;-65
2021/12/19 11:27:30;;;;;;;23.00;8.50;;;;;;;5.31;82.92;98499.63;1744539;81;26555;-65
2021/12/19 11:29:58;;;;;;;88.05;32.13;;;;;;;5.31;83.22;98496.08;1768400;81;25663;-65
2021/12/19 11:32:33;;;;;;;72.85;27.20;;;;;;;5.29;83.40;98482.78;1768149;81;27261;-65
2021/12/19 11:35:07;;;;;;;25.48;10.28;;;;;;;5.26;83.29;98490.14;1768124;81;25507;-65
2021/12/19 11:37:39;;;;;;;41.55;14.98;;;;;;;5.24;82.73;98485.55;1768228;81;25412;-63
2021/12/19 11:40:09;;;;;;;70.25;24.47;;;;;;;5.27;83.10;98487.14;1744541;81;25768;-65
2021/12/19 11:42:39;;;;;;;79.92;31.07;;;;;;;5.33;82.86;98475.70;1768414;81;25660;-64
2021/12/19 11:45:30;;;;;;;46.35;18.27;;;;;;;5.35;82.24;98461.27;1768782;81;27509;-65
2021/12/19 11:48:08;;;;;;;50.63;20.75;;;;;;;5.36;82.18;98473.75;1767289;81;25410;-65
2021/12/19 11:50:34;;;;;;;15.78;7.83;;;;;;;5.36;81.99;98472.39;1766678;81;25416;-64
2021/12/19 11:53:18;;;;;;;25.23;10.58;;;;;;;5.33;82.12;98461.30;1768175;80;26160;-66
2021/12/19 11:55:51;;;;;;;66.30;23.98;;;;;;;5.30;82.44;98459.97;1768489;81;25573;-65
2021/12/19 11:58:25;;;;;;;63.83;22.25;;;;;;;5.28;82.68;98454.00;1768701;81;27612;-65
2021/12/19 12:01:02;;;;;;;67.47;27.15;;;;;;;5.25;82.57;98458.10;1767809;81;26093;-65
2021/12/19 12:03:55;;;;;;;24.82;9.90;;;;;;;5.27;82.57;98459.97;1768593;81;25663;-65
2021/12/19 12:06:31;;;;;;;11.90;5.60;;;;;;;5.31;82.42;98460.22;1734185;82;25836;-65
2021/12/19 12:09:12;;;;;;;176.02;56.02;;;;;;;5.30;81.97;98446.38;1733872;82;25608;-65
2021/12/19 12:12:07;;;;;;;21.23;9.83;;;;;;;5.35;82.47;98450.40;1734287;82;27484;-65
2021/12/19 12:14:39;;;;;;;21.55;8.38;;;;;;;5.34;82.62;98448.79;1734018;82;25272;-64
2021/12/19 12:17:19;;;;;;;27.45;12.18;;;;;;;5.30;83.18;98437.41;1734075;82;25578;-64
2021/12/19 12:19:57;;;;;;;23.12;9.83;;;;;;;5.26;83.46;98429.83;1733582;82;25582;-64
2021/12/19 12:22:41;;;;;;;19.25;8.35;;;;;;;5.21;83.84;98426.34;1734319;82;25658;-64
2021/12/19 12:25:11;;;;;;;80.55;32.28;;;;;;;5.13;84.43;98423.13;1732851;82;26088;-63
2021/12/19 12:27:56;;;;;;;58.08;20.80;;;;;;;5.07;84.45;98424.25;1734024;82;25560;-64
2021/12/19 12:30:30;;;;;;;26.62;12.03;;;;;;;4.98;85.13;98415.90;1734501;82;25599;-64
2021/12/19 12:33:01;;;;;;;12.05;6.30;;;;;;;4.93;85.32;98411.06;1768608;80;25729;-64
2021/12/19 12:35:31;;;;;;;;;;;;;;;4.94;85.28;98419.46;1770901;81;25728;-63
2021/12/19 12:37:59;;;;;;;15.03;7.28;;;;;;;4.90;85.42;98405.66;1768233;81;27416;-64
2021/12/19 12:40:31;;;;;;;29.12;12.15;;;;;;;4.89;85.52;98406.19;1768206;81;42972;-63
2021/12/19 12:43:15;;;;;;;46.53;18.67;;;;;;;4.91;85.89;98405.91;1768280;81;25408;-64
2021/12/19 12:46:06;;;;;;;45.10;18.70;;;;;;;4.90;85.76;98402.94;1768312;81;25946;-61
2021/12/19 12:48:55;;;;;;;;;;;;;;;4.91;85.96;98397.77;1770979;81;25448;-62